Terminal Aerodrome Forecast
Issued by NWS

Home | Current Version | Previous Version | Text Only | Print | Product List | Glossary On
Versions: 1 2 3 4 5 6 7 8 9 10 11 12 13 14 15 16 17 18 19 20 21 22 23 24 25 26 27 28 29 30 31 32 33 34 35 36 37 38 39 40 41 42 43 44 45 46
000
FTUS45 KBOU 010409 AAA
TAFBJC
TAF AMD
KBJC 010409Z 0104/0124 03007KT P6SM VCSH SCT025 BKN040 OVC060
      TEMPO 0104/0106 5SM -SHSN BKN015
     FM010600 02014G24KT 3SM -SHSN SCT008 BKN015 OVC030
      TEMPO 0106/0110 3/4SM -SHSN VV008
     FM011000 03010KT 5SM -SHSN BKN020
      TEMPO 0110/0113 1SM -SN VV008
     FM011400 05007KT P6SM VCSH SCT012 BKN022
     FM011600 07007KT P6SM SCT020 BKN040
     FM011900 13007KT P6SM BKN060 BKN120=

USA.gov is the U.S. government's official web portal to all federal, state and local government web resources and services.